createdAt,value
2017-10-04T00:01:53.876Z,99738
2017-10-04T00:04:21.953Z,99733
2017-10-04T00:06:50.032Z,99738
2017-10-04T00:09:18.111Z,99751
2017-10-04T00:11:46.182Z,99746
2017-10-04T00:14:14.276Z,99738
2017-10-04T00:16:43.120Z,99748
2017-10-04T00:19:11.198Z,99746
2017-10-04T00:21:39.276Z,99760
2017-10-04T00:24:07.359Z,99759
2017-10-04T00:26:35.435Z,99755
2017-10-04T00:29:03.516Z,99751
2017-10-04T00:31:31.600Z,99754
2017-10-04T00:34:00.451Z,99761
2017-10-04T00:36:28.531Z,99762
2017-10-04T00:38:56.619Z,99747
2017-10-04T00:41:24.688Z,99744
2017-10-04T00:43:52.775Z,99752
2017-10-04T00:46:21.623Z,99758
2017-10-04T00:48:49.760Z,99763
2017-10-04T00:51:17.862Z,99756
2017-10-04T00:53:45.944Z,99753
2017-10-04T00:56:14.014Z,99744
2017-10-04T00:58:42.103Z,99738
2017-10-04T01:01:10.179Z,99736
2017-10-04T01:03:38.271Z,99717
2017-10-04T01:06:07.103Z,99710
2017-10-04T01:08:35.195Z,99705
2017-10-04T01:11:03.275Z,99714
2017-10-04T01:13:31.351Z,99728
2017-10-04T01:15:59.443Z,99731
2017-10-04T01:18:27.519Z,99709
2017-10-04T01:20:55.599Z,99715
2017-10-04T01:23:24.442Z,99721
2017-10-04T01:25:52.575Z,99733
2017-10-04T01:28:20.652Z,99746
2017-10-04T01:30:48.743Z,99755
2017-10-04T01:33:16.823Z,99756
2017-10-04T01:35:44.915Z,99748
2017-10-04T01:38:12.990Z,99748
2017-10-04T01:40:41.084Z,99743
2017-10-04T01:43:09.159Z,99743
2017-10-04T01:45:37.234Z,99752
2017-10-04T01:48:05.347Z,99762
2017-10-04T01:50:33.428Z,99766
2017-10-04T01:53:01.572Z,99768
2017-10-04T01:55:30.446Z,99777
2017-10-04T01:57:58.519Z,99787
2017-10-04T02:00:26.607Z,99781
2017-10-04T02:02:55.451Z,99787
2017-10-04T02:05:23.535Z,99770
2017-10-04T02:07:51.618Z,99768
2017-10-04T02:10:19.751Z,99750
2017-10-04T02:12:47.823Z,99755
2017-10-04T02:15:15.907Z,99758
2017-10-04T02:17:43.978Z,99755
2017-10-04T02:20:12.064Z,99750
2017-10-04T02:22:40.131Z,99755
2017-10-04T02:25:08.225Z,99754
2017-10-04T02:27:36.303Z,99753
2017-10-04T02:30:04.388Z,99751
2017-10-04T02:32:33.231Z,99753
2017-10-04T02:35:01.311Z,99749
2017-10-04T02:37:29.404Z,99747
2017-10-04T02:39:57.488Z,99749
2017-10-04T02:42:25.561Z,99750
2017-10-04T02:44:53.639Z,99760
2017-10-04T02:47:22.484Z,99744
2017-10-04T02:49:51.340Z,99746
2017-10-04T02:52:20.174Z,99764
2017-10-04T02:54:48.267Z,99750
2017-10-04T02:57:16.335Z,99747
2017-10-04T02:59:44.419Z,99746
2017-10-04T03:02:12.500Z,99750
2017-10-04T03:04:40.580Z,99750
2017-10-04T03:07:09.427Z,99742
2017-10-04T03:09:37.544Z,99741
2017-10-04T03:12:06.375Z,99745
2017-10-04T03:14:34.456Z,99750
2017-10-04T03:17:02.519Z,99751
2017-10-04T03:19:31.361Z,99745
2017-10-04T03:21:59.427Z,99747
2017-10-04T03:24:27.503Z,99746
2017-10-04T03:26:55.573Z,99746
2017-10-04T03:29:23.659Z,99750
2017-10-04T03:31:52.499Z,99755
2017-10-04T03:34:20.572Z,99764
2017-10-04T03:36:48.656Z,99756
2017-10-04T03:39:16.726Z,99755
2017-10-04T03:41:44.817Z,99770
2017-10-04T03:44:12.887Z,99765
2017-10-04T03:46:40.972Z,99764
2017-10-04T03:49:09.044Z,99765
2017-10-04T03:51:37.114Z,99754
2017-10-04T03:54:05.187Z,99757
2017-10-04T03:56:33.276Z,99757
2017-10-04T03:59:02.115Z,99745
2017-10-04T04:01:30.200Z,99755
2017-10-04T04:03:58.273Z,99751
2017-10-04T04:06:26.355Z,99752
2017-10-04T04:08:54.431Z,99751
2017-10-04T04:11:22.516Z,99752
2017-10-04T04:13:50.597Z,99754
2017-10-04T04:16:19.466Z,99747
2017-10-04T04:18:47.551Z,99743
2017-10-04T04:21:15.624Z,99738
2017-10-04T04:23:43.703Z,99741
2017-10-04T04:26:12.559Z,99734
2017-10-04T04:28:40.639Z,99738
2017-10-04T04:31:08.722Z,99742
2017-10-04T04:33:36.803Z,99734
2017-10-04T04:36:04.888Z,99722
2017-10-04T04:38:51.595Z,99725
2017-10-04T04:41:20.455Z,99720
2017-10-04T04:43:48.547Z,99725
2017-10-04T04:46:16.646Z,99726
2017-10-04T04:48:45.491Z,99726
2017-10-04T04:51:13.579Z,99728
2017-10-04T04:53:41.685Z,99726
2017-10-04T04:56:10.527Z,99729
2017-10-04T04:58:38.596Z,99736
2017-10-04T05:01:06.687Z,99731
2017-10-04T05:03:34.768Z,99731
2017-10-04T05:06:02.859Z,99734
2017-10-04T05:08:31.706Z,99727
2017-10-04T05:10:59.791Z,99730
2017-10-04T05:13:27.876Z,99741
2017-10-04T05:15:55.950Z,99724
2017-10-04T05:18:24.020Z,99742
2017-10-04T05:20:52.096Z,99738
2017-10-04T05:23:20.959Z,99730
2017-10-04T05:25:49.042Z,99724
2017-10-04T05:28:17.120Z,99733
2017-10-04T05:30:45.268Z,99744
2017-10-04T05:33:13.331Z,99735
2017-10-04T05:35:41.424Z,99742
2017-10-04T05:38:09.507Z,99746
2017-10-04T05:40:37.586Z,99747
2017-10-04T05:43:05.673Z,99734
2017-10-04T05:45:33.783Z,99733
2017-10-04T05:48:01.847Z,99739
2017-10-04T05:50:29.932Z,99738
2017-10-04T05:52:58.015Z,99733
2017-10-04T05:55:26.091Z,99733
2017-10-04T05:57:54.162Z,99737
2017-10-04T06:00:22.253Z,99746
2017-10-04T06:02:50.327Z,99752
2017-10-04T06:05:18.411Z,99750
2017-10-04T06:07:46.481Z,99743
2017-10-04T06:10:14.559Z,99741
2017-10-04T06:12:42.669Z,99751
2017-10-04T06:15:10.767Z,99751
2017-10-04T06:17:38.848Z,99752
2017-10-04T06:20:06.957Z,99738
2017-10-04T06:22:35.035Z,99740
2017-10-04T06:25:03.106Z,99740
2017-10-04T06:27:31.176Z,99745
2017-10-04T06:29:59.254Z,99748
2017-10-04T06:32:27.328Z,99743
2017-10-04T06:34:56.165Z,99745
2017-10-04T06:37:25.028Z,99747
2017-10-04T06:39:53.180Z,99736
2017-10-04T06:42:21.256Z,99737
2017-10-04T06:44:50.104Z,99744
2017-10-04T06:47:18.188Z,99737
2017-10-04T06:49:46.319Z,99739
2017-10-04T06:52:15.157Z,99726
2017-10-04T06:54:43.231Z,99716
2017-10-04T06:57:11.327Z,99724
2017-10-04T06:59:40.174Z,99738
2017-10-04T07:02:08.305Z,99725
2017-10-04T07:04:37.152Z,99729
2017-10-04T07:07:05.455Z,99732
2017-10-04T07:09:33.549Z,99732
2017-10-04T07:12:02.398Z,99735
2017-10-04T07:14:30.476Z,99727
2017-10-04T07:16:58.559Z,99731
2017-10-04T07:19:26.636Z,99734
2017-10-04T07:21:54.711Z,99743
2017-10-04T07:24:22.788Z,99735
2017-10-04T07:26:51.696Z,99726
2017-10-04T07:29:20.535Z,99731
2017-10-04T07:31:48.775Z,99722
2017-10-04T07:34:16.882Z,99716
2017-10-04T07:36:44.963Z,99715
2017-10-04T07:39:13.057Z,99725
2017-10-04T07:41:41.131Z,99725
2017-10-04T07:44:09.220Z,99729
2017-10-04T07:46:38.068Z,99720
2017-10-04T07:49:06.159Z,99724
2017-10-04T07:51:34.453Z,99731
2017-10-04T07:54:03.311Z,99728
2017-10-04T07:56:31.383Z,99731
2017-10-04T07:58:59.467Z,99739
2017-10-04T08:01:27.557Z,99733
2017-10-04T08:03:55.642Z,99739
2017-10-04T08:06:24.488Z,99733
2017-10-04T08:08:52.708Z,99729
2017-10-04T08:11:21.560Z,99719
2017-10-04T08:13:49.635Z,99709
2017-10-04T08:16:17.716Z,99719
2017-10-04T08:18:45.802Z,99703
2017-10-04T08:21:13.888Z,99693
2017-10-04T08:23:42.755Z,99702
2017-10-04T08:26:10.864Z,99707
2017-10-04T08:28:39.704Z,99718
2017-10-04T08:31:07.853Z,99713
2017-10-04T08:33:35.936Z,99695
2017-10-04T08:36:04.007Z,99703
2017-10-04T08:38:32.096Z,99696
2017-10-04T08:41:00.195Z,99697
2017-10-04T08:43:28.279Z,99700
2017-10-04T08:45:57.116Z,99695
2017-10-04T08:48:37.846Z,99690
2017-10-04T08:51:06.696Z,99691
2017-10-04T08:53:34.790Z,99681
2017-10-04T08:56:02.859Z,99673
2017-10-04T08:58:30.943Z,99668
2017-10-04T09:00:59.796Z,99674
2017-10-04T09:03:27.885Z,99670
2017-10-04T09:06:03.729Z,99667
2017-10-04T09:08:31.819Z,99656
2017-10-04T09:10:59.898Z,99652
2017-10-04T09:13:27.976Z,99655
2017-10-04T09:15:56.051Z,99659
2017-10-04T09:18:24.911Z,99648
2017-10-04T09:20:52.991Z,99649
2017-10-04T09:23:21.088Z,99656
2017-10-04T09:25:49.151Z,99662
2017-10-04T09:28:17.232Z,99658
2017-10-04T09:30:46.088Z,99659
2017-10-04T09:33:14.187Z,99654
2017-10-04T09:35:42.264Z,99651
2017-10-04T09:38:10.350Z,99643
2017-10-04T09:40:39.198Z,99649
2017-10-04T09:43:07.270Z,99641
2017-10-04T09:45:35.354Z,99642
2017-10-04T09:48:03.440Z,99638
2017-10-04T09:50:31.520Z,99640
2017-10-04T09:53:00.369Z,99639
2017-10-04T09:55:28.455Z,99623
2017-10-04T09:57:56.549Z,99624
2017-10-04T10:00:24.627Z,99608
2017-10-04T10:02:53.485Z,99610
2017-10-04T10:05:21.619Z,99616
2017-10-04T10:07:49.917Z,99615
2017-10-04T10:10:17.996Z,99608
2017-10-04T10:12:46.827Z,99604
2017-10-04T10:15:14.904Z,99613
2017-10-04T10:17:42.987Z,99599
2017-10-04T10:20:11.831Z,99580
2017-10-04T10:22:39.939Z,99584
2017-10-04T10:25:08.007Z,99576
2017-10-04T10:27:36.083Z,99568
2017-10-04T10:30:04.157Z,99568
2017-10-04T10:32:32.236Z,99588
2017-10-04T10:35:01.081Z,99595
2017-10-04T10:37:29.159Z,99596
2017-10-04T10:39:58.015Z,99587
2017-10-04T10:42:26.098Z,99588
2017-10-04T10:44:54.171Z,99598
2017-10-04T10:47:22.252Z,99594
2017-10-04T10:49:50.319Z,99597
2017-10-04T10:52:18.420Z,99592
2017-10-04T10:54:46.512Z,99589
2017-10-04T10:57:14.604Z,99565
2017-10-04T10:59:43.439Z,99561
2017-10-04T11:02:12.305Z,99540
2017-10-04T11:04:40.372Z,99534
2017-10-04T11:07:08.442Z,99535
2017-10-04T11:09:37.303Z,99533
2017-10-04T11:12:05.378Z,99518
2017-10-04T11:14:33.472Z,99510
2017-10-04T11:17:02.301Z,99508
2017-10-04T11:19:30.397Z,99500
2017-10-04T11:21:58.498Z,99508
2017-10-04T11:24:26.606Z,99496
2017-10-04T11:26:54.705Z,99504
2017-10-04T11:29:22.778Z,99507
2017-10-04T11:31:50.864Z,99509
2017-10-04T11:34:18.935Z,99518
2017-10-04T11:36:47.008Z,99524
2017-10-04T11:39:15.866Z,99527
2017-10-04T11:41:43.948Z,99512
2017-10-04T11:44:12.016Z,99516
2017-10-04T11:46:40.090Z,99511
2017-10-04T11:49:08.164Z,99497
2017-10-04T11:51:36.308Z,99502
2017-10-04T11:54:05.144Z,99500
2017-10-04T11:56:33.218Z,99488
2017-10-04T11:59:01.294Z,99498
2017-10-04T12:01:29.359Z,99477
2017-10-04T12:03:57.435Z,99470
2017-10-04T12:06:25.498Z,99479
2017-10-04T12:08:53.567Z,99466
2017-10-04T12:11:21.644Z,99468
2017-10-04T12:13:49.733Z,99477
2017-10-04T12:16:17.794Z,99476
2017-10-04T12:18:45.891Z,99479
2017-10-04T12:21:13.963Z,99481
2017-10-04T12:23:42.038Z,99478
2017-10-04T12:26:10.116Z,99475
2017-10-04T12:28:38.960Z,99472
2017-10-04T12:31:07.036Z,99473
2017-10-04T12:33:35.111Z,99469
2017-10-04T12:36:03.192Z,99474
2017-10-04T12:38:31.272Z,99461
2017-10-04T12:40:59.348Z,99449
2017-10-04T12:43:27.423Z,99445
2017-10-04T12:45:55.497Z,99451
2017-10-04T12:48:23.584Z,99449
2017-10-04T12:50:51.651Z,99457
2017-10-04T12:53:19.725Z,99453
2017-10-04T12:55:47.787Z,99435
2017-10-04T12:58:15.871Z,99442
2017-10-04T13:00:43.955Z,99445
2017-10-04T13:03:12.829Z,99450
2017-10-04T13:05:40.895Z,99446
2017-10-04T13:08:08.988Z,99446
2017-10-04T13:10:37.824Z,99454
2017-10-04T13:13:06.670Z,99437
2017-10-04T13:15:35.511Z,99420
2017-10-04T13:18:04.346Z,99414
2017-10-04T13:20:33.191Z,99405
2017-10-04T13:23:01.275Z,99401
2017-10-04T13:25:29.347Z,99414
2017-10-04T13:27:57.419Z,99411
2017-10-04T13:30:25.491Z,99408
2017-10-04T13:32:53.573Z,99392
2017-10-04T13:35:21.634Z,99390
2017-10-04T13:37:49.706Z,99388
2017-10-04T13:40:17.809Z,99381
2017-10-04T13:42:45.887Z,99384
2017-10-04T13:45:13.969Z,99400
2017-10-04T13:47:42.828Z,99414
2017-10-04T13:50:10.896Z,99415
2017-10-04T13:52:38.992Z,99415
2017-10-04T13:55:07.062Z,99407
2017-10-04T13:57:35.145Z,99399
2017-10-04T14:00:03.208Z,99407
2017-10-04T14:02:31.292Z,99401
2017-10-04T14:05:00.152Z,99406
2017-10-04T14:07:28.243Z,99407
2017-10-04T14:09:56.315Z,99401
2017-10-04T14:12:24.408Z,99384
2017-10-04T14:14:53.252Z,99378
2017-10-04T14:17:21.324Z,99377
2017-10-04T14:19:49.400Z,99379
2017-10-04T14:22:17.467Z,99376
2017-10-04T14:24:45.552Z,99376
2017-10-04T14:27:13.627Z,99366
2017-10-04T14:29:41.715Z,99358
2017-10-04T14:32:09.787Z,99345
2017-10-04T14:34:37.868Z,99364
2017-10-04T14:37:05.937Z,99355
2017-10-04T14:39:34.015Z,99349
2017-10-04T14:42:02.849Z,99361
2017-10-04T14:44:30.928Z,99369
2017-10-04T14:46:59.009Z,99358
2017-10-04T14:49:27.834Z,99367
2017-10-04T14:51:55.908Z,99357
2017-10-04T14:54:23.995Z,99354
2017-10-04T14:56:52.843Z,99357
2017-10-04T14:59:20.927Z,99366
2017-10-04T15:01:49.012Z,99359
2017-10-04T15:04:17.091Z,99363
2017-10-04T15:06:45.180Z,99365
2017-10-04T15:09:13.256Z,99358
2017-10-04T15:11:42.091Z,99354
2017-10-04T15:14:10.183Z,99346
2017-10-04T15:16:38.256Z,99350
2017-10-04T15:19:06.331Z,99354
2017-10-04T15:21:34.556Z,99341
2017-10-04T15:24:02.636Z,99350
2017-10-04T15:26:30.708Z,99355
2017-10-04T15:28:58.799Z,99367
2017-10-04T15:31:26.875Z,99364
2017-10-04T15:33:54.952Z,99351
2017-10-04T15:36:23.025Z,99356
2017-10-04T15:38:51.112Z,99357
2017-10-04T15:41:19.187Z,99362
2017-10-04T15:43:47.280Z,99358
2017-10-04T15:46:16.149Z,99358
2017-10-04T15:48:44.221Z,99349
2017-10-04T15:51:12.308Z,99337
2017-10-04T15:53:41.153Z,99337
2017-10-04T15:56:09.226Z,99333
2017-10-04T15:58:38.087Z,99333
2017-10-04T16:01:06.189Z,99326
2017-10-04T16:03:34.255Z,99330
2017-10-04T16:06:02.363Z,99335
2017-10-04T16:08:30.463Z,99333
2017-10-04T16:10:59.312Z,99327
2017-10-04T16:13:27.385Z,99332
2017-10-04T16:15:55.459Z,99329
2017-10-04T16:18:24.016Z,99337
2017-10-04T16:20:52.293Z,99336
2017-10-04T16:23:20.367Z,99336
2017-10-04T16:25:49.206Z,99339
2017-10-04T16:28:17.291Z,99332
2017-10-04T16:30:46.130Z,99336
2017-10-04T16:33:14.200Z,99328
2017-10-04T16:35:42.304Z,99326
2017-10-04T16:38:10.375Z,99345
2017-10-04T16:40:38.473Z,99338
2017-10-04T16:43:07.318Z,99348
2017-10-04T16:45:35.424Z,99350
2017-10-04T16:48:03.482Z,99357
2017-10-04T16:50:31.555Z,99349
2017-10-04T16:52:59.615Z,99338
2017-10-04T16:55:27.699Z,99337
2017-10-04T16:57:55.780Z,99336
2017-10-04T17:00:23.860Z,99338
2017-10-04T17:02:51.932Z,99350
2017-10-04T17:05:19.991Z,99333
2017-10-04T17:07:48.076Z,99338
2017-10-04T17:10:16.147Z,99338
2017-10-04T17:12:44.228Z,99335
2017-10-04T17:15:12.319Z,99341
2017-10-04T17:17:41.156Z,99343
2017-10-04T17:20:09.226Z,99343
2017-10-04T17:22:37.298Z,99342
2017-10-04T17:25:05.372Z,99350
2017-10-04T17:27:33.459Z,99340
2017-10-04T17:30:01.536Z,99328
2017-10-04T17:32:29.607Z,99326
2017-10-04T17:34:57.691Z,99322
2017-10-04T17:37:25.768Z,99314
2017-10-04T17:39:53.848Z,99319
2017-10-04T17:42:22.687Z,99322
2017-10-04T17:44:50.772Z,99310
2017-10-04T17:47:18.876Z,99318
2017-10-04T17:49:46.961Z,99320
2017-10-04T17:52:15.808Z,99337
2017-10-04T17:54:43.895Z,99339
2017-10-04T17:57:11.967Z,99335
2017-10-04T17:59:40.044Z,99335
2017-10-04T18:02:08.137Z,99337
2017-10-04T18:04:36.966Z,99329
2017-10-04T18:07:05.056Z,99339
2017-10-04T18:09:33.141Z,99328
2017-10-04T18:12:01.226Z,99320
2017-10-04T18:14:29.304Z,99319
2017-10-04T18:16:57.391Z,99318
2017-10-04T18:19:26.224Z,99326
2017-10-04T18:21:54.302Z,99324
2017-10-04T18:24:22.376Z,99327
2017-10-04T18:26:51.290Z,99330
2017-10-04T18:29:19.371Z,99333
2017-10-04T18:31:47.460Z,99323
2017-10-04T18:34:15.536Z,99326
2017-10-04T18:36:44.381Z,99332
2017-10-04T18:39:12.459Z,99320
2017-10-04T18:41:40.532Z,99312
2017-10-04T18:44:08.611Z,99305
2017-10-04T18:46:36.695Z,99314
2017-10-04T18:49:04.780Z,99322
2017-10-04T18:51:32.856Z,99323
2017-10-04T18:54:00.933Z,99298
2017-10-04T18:56:29.788Z,99292
2017-10-04T18:58:57.875Z,99297
2017-10-04T19:01:25.960Z,99295
2017-10-04T19:03:54.064Z,99284
2017-10-04T19:06:22.141Z,99268
2017-10-04T19:08:50.215Z,99267
2017-10-04T19:11:18.304Z,99272
2017-10-04T19:13:47.158Z,99281
2017-10-04T19:16:16.021Z,99279
2017-10-04T19:18:44.108Z,99262
2017-10-04T19:21:12.192Z,99275
2017-10-04T19:23:41.047Z,99299
2017-10-04T19:26:09.132Z,99298
2017-10-04T19:28:37.219Z,99299
2017-10-04T19:31:05.300Z,99305
2017-10-04T19:33:34.151Z,99296
2017-10-04T19:36:02.316Z,99316
2017-10-04T19:38:30.399Z,99299
2017-10-04T19:40:58.497Z,99307
2017-10-04T19:43:26.787Z,99289
2017-10-04T19:45:55.628Z,99283
2017-10-04T19:48:24.478Z,99295
2017-10-04T19:50:53.320Z,99304
2017-10-04T19:53:21.410Z,99297
2017-10-04T19:55:49.480Z,99299
2017-10-04T19:58:17.574Z,99294
2017-10-04T20:00:46.428Z,99304
2017-10-04T20:03:14.515Z,99313
2017-10-04T20:05:43.612Z,99324
2017-10-04T20:08:11.696Z,99320
2017-10-04T20:10:39.773Z,99309
2017-10-04T20:13:07.860Z,99305
2017-10-04T20:15:36.711Z,99304
2017-10-04T20:18:04.795Z,99313
2017-10-04T20:20:32.880Z,99312
2017-10-04T20:23:00.952Z,99310
2017-10-04T20:25:29.076Z,99319
2017-10-04T20:27:57.200Z,99304
2017-10-04T20:30:25.681Z,99292
2017-10-04T20:32:53.870Z,99288
2017-10-04T20:35:22.724Z,99293
2017-10-04T20:37:50.795Z,99290
2017-10-04T20:40:18.891Z,99288
2017-10-04T20:42:46.967Z,99289
2017-10-04T20:45:15.073Z,99289
2017-10-04T20:47:43.158Z,99294
2017-10-04T20:50:11.488Z,99282
2017-10-04T20:52:39.563Z,99288
2017-10-04T20:55:07.976Z,99298
2017-10-04T20:57:36.067Z,99290
2017-10-04T21:00:04.141Z,99295
2017-10-04T21:02:32.235Z,99290
2017-10-04T21:05:00.314Z,99289
2017-10-04T21:07:28.408Z,99298
2017-10-04T21:09:56.486Z,99299
2017-10-04T21:12:25.344Z,99306
2017-10-04T21:14:53.425Z,99318
2017-10-04T21:17:21.514Z,99322
2017-10-04T21:19:49.658Z,99318
2017-10-04T21:22:17.747Z,99320
2017-10-04T21:24:45.833Z,99300
2017-10-04T21:27:13.920Z,99289
2017-10-04T21:29:42.776Z,99288
2017-10-04T21:32:10.859Z,99292
2017-10-04T21:34:38.952Z,99292
2017-10-04T21:37:07.786Z,99295
2017-10-04T21:39:35.901Z,99289
2017-10-04T21:42:03.981Z,99274
2017-10-04T21:44:32.851Z,99277
2017-10-04T21:47:01.042Z,99271
2017-10-04T21:49:29.132Z,99260
2017-10-04T21:51:57.988Z,99265
2017-10-04T21:54:26.067Z,99259
2017-10-04T21:56:54.144Z,99281
2017-10-04T21:59:22.229Z,99270
2017-10-04T22:01:50.299Z,99258
2017-10-04T22:04:18.375Z,99268
2017-10-04T22:06:46.448Z,99283
2017-10-04T22:09:14.519Z,99274
2017-10-04T22:11:42.599Z,99282
2017-10-04T22:14:11.635Z,99284
2017-10-04T22:16:39.716Z,99273
2017-10-04T22:19:07.789Z,99272
2017-10-04T22:21:36.686Z,99282
2017-10-04T22:24:04.763Z,99273
2017-10-04T22:26:32.855Z,99268
2017-10-04T22:29:00.947Z,99268
2017-10-04T22:31:29.803Z,99275
2017-10-04T22:33:57.884Z,99268
2017-10-04T22:36:26.191Z,99253
2017-10-04T22:38:55.049Z,99222
2017-10-04T22:41:23.140Z,99223
2017-10-04T22:43:51.219Z,99228
2017-10-04T22:46:19.286Z,99219
2017-10-04T22:48:47.366Z,99221
2017-10-04T22:51:15.443Z,99214
2017-10-04T22:53:44.297Z,99221
2017-10-04T22:56:12.378Z,99221
2017-10-04T22:58:40.457Z,99218
2017-10-04T23:01:08.560Z,99224
2017-10-04T23:03:37.403Z,99221
2017-10-04T23:06:05.482Z,99226
2017-10-04T23:08:33.575Z,99221
2017-10-04T23:11:01.699Z,99216
2017-10-04T23:13:30.552Z,99222
2017-10-04T23:15:59.391Z,99224
2017-10-04T23:18:28.243Z,99222
2017-10-04T23:20:57.087Z,99230
2017-10-04T23:23:25.160Z,99207
2017-10-04T23:25:53.248Z,99203
2017-10-04T23:28:21.320Z,99200
2017-10-04T23:30:49.407Z,99191
2017-10-04T23:33:17.479Z,99200
2017-10-04T23:35:45.568Z,99196
2017-10-04T23:38:14.406Z,99204
2017-10-04T23:40:42.501Z,99199
2017-10-04T23:43:10.585Z,99189
2017-10-04T23:45:38.663Z,99191
2017-10-04T23:48:06.740Z,99186
2017-10-04T23:50:35.595Z,99175
2017-10-04T23:53:03.667Z,99174
2017-10-04T23:55:31.760Z,99159
2017-10-04T23:57:59.840Z,99152
